George Town, Cayman Islands
Current Conditions -  °F | °C
As of 9:00 PM on Saturday 27 Dec 2014 (Local Time) from MWCR Reporting Station
Few Clouds Few Clouds  
Wind Chill: 79°   Ceiling: Unl
Heat Index: 82°   Visibility: 6mi
Dew Point: 75°   Wind: 7mph
Humidity: 89%   Direction: 70°ENE
Pressure: 30.06"   Gusts: NA
Location:  19.28°N, 81.39°W
Report Text: MWCR 280200Z 07006KT 9999 FEW018 26/24 Q1018 NOSIG
Loading
Personal Weather Stations






























Interactive Weather Map New forecast layout! Learn more

10-Day Weather Forecast

Advertisements
Track Severe Weather on mobile